sensor_id;sensor_type;location;lat;lon;timestamp;temperature;humidity
17053;DHT22;8643;48.824;11.422;2023-01-30T00:01:32;-2.40;99.90
17053;DHT22;8643;48.824;11.422;2023-01-30T00:04:00;-2.50;99.90
17053;DHT22;8643;48.824;11.422;2023-01-30T00:06:29;-2.10;99.90
17053;DHT22;8643;48.824;11.422;2023-01-30T00:08:57;-2.60;99.90
17053;DHT22;8643;48.824;11.422;2023-01-30T00:13:56;-2.60;99.90
17053;DHT22;8643;48.824;11.422;2023-01-30T00:16:24;-2.70;99.90
17053;DHT22;8643;48.824;11.422;2023-01-30T00:18:54;-2.70;99.90
17053;DHT22;8643;48.824;11.422;2023-01-30T00:21:23;-2.60;99.90
17053;DHT22;8643;48.824;11.422;2023-01-30T00:23:51;-2.60;99.90
17053;DHT22;8643;48.824;11.422;2023-01-30T00:26:20;-2.60;99.90
17053;DHT22;8643;48.824;11.422;2023-01-30T00:31:21;-2.60;99.90
17053;DHT22;8643;48.824;11.422;2023-01-30T00:33:50;-2.60;99.90
17053;DHT22;8643;48.824;11.422;2023-01-30T00:36:23;-2.50;99.90
17053;DHT22;8643;48.824;11.422;2023-01-30T00:41:20;-2.60;99.90
17053;DHT22;8643;48.824;11.422;2023-01-30T00:43:49;-2.50;99.90
17053;DHT22;8643;48.824;11.422;2023-01-30T00:46:38;-2.50;99.90
17053;DHT22;8643;48.824;11.422;2023-01-30T00:49:25;-2.50;99.90
17053;DHT22;8643;48.824;11.422;2023-01-30T00:51:54;-2.50;99.90
17053;DHT22;8643;48.824;11.422;2023-01-30T00:54:23;-2.60;99.90
17053;DHT22;8643;48.824;11.422;2023-01-30T00:56:51;-2.50;99.90
17053;DHT22;8643;48.824;11.422;2023-01-30T00:59:24;-2.50;99.90
17053;DHT22;8643;48.824;11.422;2023-01-30T01:04:21;-2.50;99.90
17053;DHT22;8643;48.824;11.422;2023-01-30T01:06:50;-2.50;99.90
17053;DHT22;8643;48.824;11.422;2023-01-30T01:09:20;-2.50;99.90
17053;DHT22;8643;48.824;11.422;2023-01-30T01:11:48;-2.50;99.90
17053;DHT22;8643;48.824;11.422;2023-01-30T01:14:16;-2.60;99.90
17053;DHT22;8643;48.824;11.422;2023-01-30T01:16:45;-2.50;99.90
17053;DHT22;8643;48.824;11.422;2023-01-30T01:19:14;-2.50;99.90
17053;DHT22;8643;48.824;11.422;2023-01-30T01:21:42;-2.50;99.90
17053;DHT22;8643;48.824;11.422;2023-01-30T01:24:12;-2.50;99.90
17053;DHT22;8643;48.824;11.422;2023-01-30T01:26:44;-2.50;99.90
17053;DHT22;8643;48.824;11.422;2023-01-30T01:29:13;-2.50;99.90
17053;DHT22;8643;48.824;11.422;2023-01-30T01:31:43;-2.50;99.90
17053;DHT22;8643;48.824;11.422;2023-01-30T01:34:14;-2.50;99.90
17053;DHT22;8643;48.824;11.422;2023-01-30T01:36:43;-3.70;99.90
17053;DHT22;8643;48.824;11.422;2023-01-30T01:39:21;-2.50;99.90
17053;DHT22;8643;48.824;11.422;2023-01-30T01:41:50;-2.50;99.90
17053;DHT22;8643;48.824;11.422;2023-01-30T01:44:18;-2.50;99.90
17053;DHT22;8643;48.824;11.422;2023-01-30T01:46:49;-2.20;99.90
17053;DHT22;8643;48.824;11.422;2023-01-30T01:49:24;-2.50;99.90
17053;DHT22;8643;48.824;11.422;2023-01-30T01:51:57;-2.60;99.90
17053;DHT22;8643;48.824;11.422;2023-01-30T01:54:33;-2.60;99.90
17053;DHT22;8643;48.824;11.422;2023-01-30T01:57:14;-2.70;99.90
17053;DHT22;8643;48.824;11.422;2023-01-30T01:59:50;-2.70;99.90
17053;DHT22;8643;48.824;11.422;2023-01-30T02:02:23;-2.80;99.90
17053;DHT22;8643;48.824;11.422;2023-01-30T02:04:56;-2.80;99.90
17053;DHT22;8643;48.824;11.422;2023-01-30T02:07:34;-2.90;99.90
17053;DHT22;8643;48.824;11.422;2023-01-30T02:10:08;-2.80;99.90
17053;DHT22;8643;48.824;11.422;2023-01-30T02:12:49;-2.90;99.90
17053;DHT22;8643;48.824;11.422;2023-01-30T02:15:20;-2.90;99.90
17053;DHT22;8643;48.824;11.422;2023-01-30T02:17:49;-2.90;99.90
17053;DHT22;8643;48.824;11.422;2023-01-30T02:20:26;-1.50;99.90
17053;DHT22;8643;48.824;11.422;2023-01-30T02:30:35;-2.90;99.90
17053;DHT22;8643;48.824;11.422;2023-01-30T02:33:15;-2.80;99.90
17053;DHT22;8643;48.824;11.422;2023-01-30T02:35:52;-2.70;99.90
17053;DHT22;8643;48.824;11.422;2023-01-30T02:38:38;-2.60;99.90
17053;DHT22;8643;48.824;11.422;2023-01-30T02:41:22;-2.60;99.90
17053;DHT22;8643;48.824;11.422;2023-01-30T02:46:41;-2.40;99.90
17053;DHT22;8643;48.824;11.422;2023-01-30T02:49:16;-2.30;99.90
17053;DHT22;8643;48.824;11.422;2023-01-30T02:51:49;-2.10;99.90
17053;DHT22;8643;48.824;11.422;2023-01-30T02:54:19;-2.10;99.90
17053;DHT22;8643;48.824;11.422;2023-01-30T02:56:50;-2.00;99.90
17053;DHT22;8643;48.824;11.422;2023-01-30T02:59:26;-2.00;99.90
17053;DHT22;8643;48.824;11.422;2023-01-30T03:02:26;-1.90;99.90
17053;DHT22;8643;48.824;11.422;2023-01-30T03:05:30;-1.70;99.90
17053;DHT22;8643;48.824;11.422;2023-01-30T03:08:31;-1.80;99.90
17053;DHT22;8643;48.824;11.422;2023-01-30T03:11:08;-2.50;99.90
17053;DHT22;8643;48.824;11.422;2023-01-30T03:13:48;-1.70;99.90
17053;DHT22;8643;48.824;11.422;2023-01-30T03:16:25;-1.70;99.90
17053;DHT22;8643;48.824;11.422;2023-01-30T03:19:01;0.00;99.90
17053;DHT22;8643;48.824;11.422;2023-01-30T03:24:00;-1.70;99.90
17053;DHT22;8643;48.824;11.422;2023-01-30T03:26:32;-1.60;99.90
17053;DHT22;8643;48.824;11.422;2023-01-30T03:29:04;-1.60;99.90
17053;DHT22;8643;48.824;11.422;2023-01-30T03:34:11;-1.70;99.90
17053;DHT22;8643;48.824;11.422;2023-01-30T03:36:39;-1.70;99.90
17053;DHT22;8643;48.824;11.422;2023-01-30T03:39:12;-1.70;99.90
17053;DHT22;8643;48.824;11.422;2023-01-30T03:41:40;-1.70;99.90
17053;DHT22;8643;48.824;11.422;2023-01-30T03:44:09;-1.70;99.90
17053;DHT22;8643;48.824;11.422;2023-01-30T03:46:40;-1.70;99.90
17053;DHT22;8643;48.824;11.422;2023-01-30T03:49:13;-1.70;99.90
17053;DHT22;8643;48.824;11.422;2023-01-30T03:51:41;-1.70;99.90
17053;DHT22;8643;48.824;11.422;2023-01-30T03:54:10;-1.80;99.90
17053;DHT22;8643;48.824;11.422;2023-01-30T03:59:07;-1.80;99.90
17053;DHT22;8643;48.824;11.422;2023-01-30T04:04:16;-1.90;99.90
17053;DHT22;8643;48.824;11.422;2023-01-30T04:06:45;-1.90;99.90
17053;DHT22;8643;48.824;11.422;2023-01-30T04:09:14;-1.90;99.90
17053;DHT22;8643;48.824;11.422;2023-01-30T04:11:45;-1.90;99.90
17053;DHT22;8643;48.824;11.422;2023-01-30T04:14:15;-1.90;99.90
17053;DHT22;8643;48.824;11.422;2023-01-30T04:17:04;-2.00;99.90
17053;DHT22;8643;48.824;11.422;2023-01-30T04:19:57;-2.10;99.90
17053;DHT22;8643;48.824;11.422;2023-01-30T04:24:57;-2.10;99.90
17053;DHT22;8643;48.824;11.422;2023-01-30T04:27:26;-2.20;99.90
17053;DHT22;8643;48.824;11.422;2023-01-30T04:32:54;-2.20;99.90
17053;DHT22;8643;48.824;11.422;2023-01-30T04:35:24;-2.20;99.90
17053;DHT22;8643;48.824;11.422;2023-01-30T04:37:53;-2.10;99.90
17053;DHT22;8643;48.824;11.422;2023-01-30T04:40:21;-2.20;99.90
17053;DHT22;8643;48.824;11.422;2023-01-30T04:42:49;-2.20;99.90
17053;DHT22;8643;48.824;11.422;2023-01-30T04:45:36;-2.40;99.90
17053;DHT22;8643;48.824;11.422;2023-01-30T04:48:05;-2.30;99.90
17053;DHT22;8643;48.824;11.422;2023-01-30T04:50:35;-2.30;99.90
17053;DHT22;8643;48.824;11.422;2023-01-30T04:53:05;-2.70;99.90
17053;DHT22;8643;48.824;11.422;2023-01-30T04:55:34;-2.20;99.90
17053;DHT22;8643;48.824;11.422;2023-01-30T04:58:02;-2.20;99.90
17053;DHT22;8643;48.824;11.422;2023-01-30T05:00:31;-2.20;99.90
17053;DHT22;8643;48.824;11.422;2023-01-30T05:03:00;-2.20;99.90
17053;DHT22;8643;48.824;11.422;2023-01-30T05:07:58;-2.30;99.90
17053;DHT22;8643;48.824;11.422;2023-01-30T05:10:27;-2.00;99.90
17053;DHT22;8643;48.824;11.422;2023-01-30T05:12:56;-2.10;99.90
17053;DHT22;8643;48.824;11.422;2023-01-30T05:17:58;-1.90;99.90
17053;DHT22;8643;48.824;11.422;2023-01-30T05:20:27;-1.90;99.90
17053;DHT22;8643;48.824;11.422;2023-01-30T05:22:55;-1.90;99.90
17053;DHT22;8643;48.824;11.422;2023-01-30T05:25:25;-1.90;99.90
17053;DHT22;8643;48.824;11.422;2023-01-30T05:30:22;-1.70;99.90
17053;DHT22;8643;48.824;11.422;2023-01-30T05:35:20;-1.60;99.90
17053;DHT22;8643;48.824;11.422;2023-01-30T05:37:49;-0.90;99.90
17053;DHT22;8643;48.824;11.422;2023-01-30T05:42:51;-1.40;99.90
17053;DHT22;8643;48.824;11.422;2023-01-30T05:47:49;0.00;99.90
17053;DHT22;8643;48.824;11.422;2023-01-30T05:50:24;-1.40;99.90
17053;DHT22;8643;48.824;11.422;2023-01-30T05:52:52;-1.40;99.90
17053;DHT22;8643;48.824;11.422;2023-01-30T05:57:51;-1.30;99.90
17053;DHT22;8643;48.824;11.422;2023-01-30T06:00:20;-1.40;99.90
17053;DHT22;8643;48.824;11.422;2023-01-30T06:02:49;-1.30;99.90
17053;DHT22;8643;48.824;11.422;2023-01-30T06:05:17;-1.30;99.90
17053;DHT22;8643;48.824;11.422;2023-01-30T06:07:46;-0.60;99.90
17053;DHT22;8643;48.824;11.422;2023-01-30T06:12:43;-1.40;99.90
17053;DHT22;8643;48.824;11.422;2023-01-30T06:15:13;0.20;99.90
17053;DHT22;8643;48.824;11.422;2023-01-30T06:17:42;-1.30;99.90
17053;DHT22;8643;48.824;11.422;2023-01-30T06:20:11;-1.30;99.90
17053;DHT22;8643;48.824;11.422;2023-01-30T06:27:38;-1.20;99.90
17053;DHT22;8643;48.824;11.422;2023-01-30T06:30:07;-1.10;99.90
17053;DHT22;8643;48.824;11.422;2023-01-30T06:32:38;-1.20;99.90
17053;DHT22;8643;48.824;11.422;2023-01-30T06:35:08;-1.70;99.90
17053;DHT22;8643;48.824;11.422;2023-01-30T06:37:36;-1.10;99.90
17053;DHT22;8643;48.824;11.422;2023-01-30T06:42:34;-1.10;99.90
17053;DHT22;8643;48.824;11.422;2023-01-30T06:45:07;-1.10;99.90
17053;DHT22;8643;48.824;11.422;2023-01-30T06:47:45;-1.10;99.90
17053;DHT22;8643;48.824;11.422;2023-01-30T06:50:14;-1.00;99.90
17053;DHT22;8643;48.824;11.422;2023-01-30T06:52:46;-1.00;99.90
17053;DHT22;8643;48.824;11.422;2023-01-30T06:55:18;-1.10;99.90
17053;DHT22;8643;48.824;11.422;2023-01-30T06:57:49;-1.00;99.90
17053;DHT22;8643;48.824;11.422;2023-01-30T07:00:18;-1.00;99.90
17053;DHT22;8643;48.824;11.422;2023-01-30T07:02:49;-0.90;99.90
17053;DHT22;8643;48.824;11.422;2023-01-30T07:07:46;-0.90;99.90
17053;DHT22;8643;48.824;11.422;2023-01-30T07:10:15;-0.90;99.90
17053;DHT22;8643;48.824;11.422;2023-01-30T07:12:44;-0.80;99.90
17053;DHT22;8643;48.824;11.422;2023-01-30T07:15:13;-0.80;99.90
17053;DHT22;8643;48.824;11.422;2023-01-30T07:17:42;-0.80;99.90
17053;DHT22;8643;48.824;11.422;2023-01-30T07:20:12;-0.80;99.90
17053;DHT22;8643;48.824;11.422;2023-01-30T07:25:09;-0.70;99.90
17053;DHT22;8643;48.824;11.422;2023-01-30T07:27:38;1.00;99.90
17053;DHT22;8643;48.824;11.422;2023-01-30T07:30:08;-0.70;99.90
17053;DHT22;8643;48.824;11.422;2023-01-30T07:32:37;-0.60;99.90
17053;DHT22;8643;48.824;11.422;2023-01-30T07:35:06;-0.60;99.90
17053;DHT22;8643;48.824;11.422;2023-01-30T07:37:36;-0.60;99.90
17053;DHT22;8643;48.824;11.422;2023-01-30T07:40:05;-0.60;99.90
17053;DHT22;8643;48.824;11.422;2023-01-30T07:42:36;-0.60;99.90
17053;DHT22;8643;48.824;11.422;2023-01-30T07:45:05;-0.60;99.90
17053;DHT22;8643;48.824;11.422;2023-01-30T07:50:04;-0.50;99.90
17053;DHT22;8643;48.824;11.422;2023-01-30T07:55:03;-0.40;99.90
17053;DHT22;8643;48.824;11.422;2023-01-30T08:00:02;-0.30;99.90
17053;DHT22;8643;48.824;11.422;2023-01-30T08:02:34;-0.30;99.90
17053;DHT22;8643;48.824;11.422;2023-01-30T08:07:33;-0.10;99.90
17053;DHT22;8643;48.824;11.422;2023-01-30T08:10:03;-0.30;99.90
17053;DHT22;8643;48.824;11.422;2023-01-30T08:15:00;-0.30;99.90
17053;DHT22;8643;48.824;11.422;2023-01-30T08:17:29;-0.10;99.90
17053;DHT22;8643;48.824;11.422;2023-01-30T08:19:57;-0.10;99.90
17053;DHT22;8643;48.824;11.422;2023-01-30T08:22:27;-0.10;99.90
17053;DHT22;8643;48.824;11.422;2023-01-30T08:24:59;0.00;99.90
17053;DHT22;8643;48.824;11.422;2023-01-30T08:27:29;0.00;99.90
17053;DHT22;8643;48.824;11.422;2023-01-30T08:32:26;0.10;99.90
17053;DHT22;8643;48.824;11.422;2023-01-30T08:34:54;0.10;99.90
17053;DHT22;8643;48.824;11.422;2023-01-30T08:37:23;0.20;99.90
17053;DHT22;8643;48.824;11.422;2023-01-30T08:39:51;1.70;99.90
17053;DHT22;8643;48.824;11.422;2023-01-30T08:42:20;0.50;99.90
17053;DHT22;8643;48.824;11.422;2023-01-30T08:44:53;0.70;99.90
17053;DHT22;8643;48.824;11.422;2023-01-30T08:47:21;0.60;99.90
17053;DHT22;8643;48.824;11.422;2023-01-30T08:49:49;0.40;99.90
17053;DHT22;8643;48.824;11.422;2023-01-30T08:54:48;0.40;99.90
17053;DHT22;8643;48.824;11.422;2023-01-30T08:57:17;0.40;99.90
17053;DHT22;8643;48.824;11.422;2023-01-30T08:59:45;1.20;99.90
17053;DHT22;8643;48.824;11.422;2023-01-30T09:02:15;0.60;99.90
17053;DHT22;8643;48.824;11.422;2023-01-30T09:07:13;1.90;99.90
17053;DHT22;8643;48.824;11.422;2023-01-30T09:09:44;0.40;99.90
17053;DHT22;8643;48.824;11.422;2023-01-30T09:12:14;0.80;99.90
17053;DHT22;8643;48.824;11.422;2023-01-30T09:14:42;0.80;99.90
17053;DHT22;8643;48.824;11.422;2023-01-30T09:17:11;0.80;99.90
17053;DHT22;8643;48.824;11.422;2023-01-30T09:19:41;0.70;99.90
17053;DHT22;8643;48.824;11.422;2023-01-30T09:22:09;0.70;99.90
17053;DHT22;8643;48.824;11.422;2023-01-30T09:24:38;0.70;99.90
17053;DHT22;8643;48.824;11.422;2023-01-30T09:27:06;0.60;99.90
17053;DHT22;8643;48.824;11.422;2023-01-30T09:32:04;0.60;99.90
17053;DHT22;8643;48.824;11.422;2023-01-30T09:34:33;0.60;99.90
17053;DHT22;8643;48.824;11.422;2023-01-30T09:37:02;0.70;99.90
17053;DHT22;8643;48.824;11.422;2023-01-30T09:39:31;0.70;99.90
17053;DHT22;8643;48.824;11.422;2023-01-30T09:42:17;0.80;99.90
17053;DHT22;8643;48.824;11.422;2023-01-30T09:48:19;0.80;99.90
17053;DHT22;8643;48.824;11.422;2023-01-30T09:51:22;0.90;99.90
17053;DHT22;8643;48.824;11.422;2023-01-30T09:54:11;0.90;99.90
17053;DHT22;8643;48.824;11.422;2023-01-30T09:56:44;1.00;99.90
17053;DHT22;8643;48.824;11.422;2023-01-30T09:59:20;0.90;99.90
17053;DHT22;8643;48.824;11.422;2023-01-30T10:01:57;1.00;99.90
17053;DHT22;8643;48.824;11.422;2023-01-30T10:04:33;1.10;99.90
17053;DHT22;8643;48.824;11.422;2023-01-30T10:07:14;1.10;99.90
17053;DHT22;8643;48.824;11.422;2023-01-30T10:09:58;1.20;99.90
17053;DHT22;8643;48.824;11.422;2023-01-30T10:12:45;1.20;99.90
17053;DHT22;8643;48.824;11.422;2023-01-30T10:15:33;1.20;99.90
17053;DHT22;8643;48.824;11.422;2023-01-30T10:21:30;1.30;99.90
17053;DHT22;8643;48.824;11.422;2023-01-30T10:24:24;1.30;99.90
17053;DHT22;8643;48.824;11.422;2023-01-30T10:27:03;1.20;99.90
17053;DHT22;8643;48.824;11.422;2023-01-30T10:29:39;1.30;99.90
17053;DHT22;8643;48.824;11.422;2023-01-30T10:32:14;1.40;99.90
17053;DHT22;8643;48.824;11.422;2023-01-30T10:34:49;1.40;99.90
17053;DHT22;8643;48.824;11.422;2023-01-30T10:37:23;2.90;99.90
17053;DHT22;8643;48.824;11.422;2023-01-30T10:40:02;1.50;99.90
17053;DHT22;8643;48.824;11.422;2023-01-30T10:42:46;1.70;99.90
17053;DHT22;8643;48.824;11.422;2023-01-30T10:45:26;1.90;99.90
17053;DHT22;8643;48.824;11.422;2023-01-30T10:48:19;2.00;99.90
17053;DHT22;8643;48.824;11.422;2023-01-30T10:51:19;1.90;99.90
17053;DHT22;8643;48.824;11.422;2023-01-30T10:53:58;1.80;99.90
17053;DHT22;8643;48.824;11.422;2023-01-30T10:56:36;1.80;99.90
17053;DHT22;8643;48.824;11.422;2023-01-30T10:59:22;1.80;99.90
17053;DHT22;8643;48.824;11.422;2023-01-30T11:01:59;1.80;99.90
17053;DHT22;8643;48.824;11.422;2023-01-30T11:04:42;1.80;99.90
17053;DHT22;8643;48.824;11.422;2023-01-30T11:07:16;1.70;99.90
17053;DHT22;8643;48.824;11.422;2023-01-30T11:09:46;1.70;99.90
17053;DHT22;8643;48.824;11.422;2023-01-30T11:12:15;1.70;99.90
17053;DHT22;8643;48.824;11.422;2023-01-30T11:14:56;1.70;99.90
17053;DHT22;8643;48.824;11.422;2023-01-30T11:17:32;1.70;99.90
17053;DHT22;8643;48.824;11.422;2023-01-30T11:20:06;1.60;99.90
17053;DHT22;8643;48.824;11.422;2023-01-30T11:22:48;1.50;99.90
17053;DHT22;8643;48.824;11.422;2023-01-30T11:25:21;1.60;99.90
17053;DHT22;8643;48.824;11.422;2023-01-30T11:27:55;1.70;99.90
17053;DHT22;8643;48.824;11.422;2023-01-30T11:30:32;1.70;99.90
17053;DHT22;8643;48.824;11.422;2023-01-30T11:33:10;1.80;99.90
17053;DHT22;8643;48.824;11.422;2023-01-30T11:35:44;1.70;99.90
17053;DHT22;8643;48.824;11.422;2023-01-30T11:38:22;1.70;99.90
17053;DHT22;8643;48.824;11.422;2023-01-30T11:41:15;1.70;99.90
17053;DHT22;8643;48.824;11.422;2023-01-30T11:43:46;1.80;99.90
17053;DHT22;8643;48.824;11.422;2023-01-30T11:46:18;0.40;99.90
17053;DHT22;8643;48.824;11.422;2023-01-30T11:48:50;1.70;99.90
17053;DHT22;8643;48.824;11.422;2023-01-30T11:51:44;1.70;99.90
17053;DHT22;8643;48.824;11.422;2023-01-30T11:54:17;1.70;99.90
17053;DHT22;8643;48.824;11.422;2023-01-30T11:56:56;1.70;99.90
17053;DHT22;8643;48.824;11.422;2023-01-30T11:59:29;1.70;99.90
17053;DHT22;8643;48.824;11.422;2023-01-30T12:02:12;1.70;99.90
17053;DHT22;8643;48.824;11.422;2023-01-30T12:04:49;2.00;99.90
17053;DHT22;8643;48.824;11.422;2023-01-30T12:07:21;1.80;99.90
17053;DHT22;8643;48.824;11.422;2023-01-30T12:09:51;1.80;99.90
17053;DHT22;8643;48.824;11.422;2023-01-30T12:12:30;1.80;99.90
17053;DHT22;8643;48.824;11.422;2023-01-30T12:15:09;1.90;99.90
17053;DHT22;8643;48.824;11.422;2023-01-30T12:17:51;2.20;99.90
17053;DHT22;8643;48.824;11.422;2023-01-30T12:20:39;1.90;99.90
17053;DHT22;8643;48.824;11.422;2023-01-30T12:23:17;1.10;99.90
17053;DHT22;8643;48.824;11.422;2023-01-30T12:25:58;1.90;99.90
17053;DHT22;8643;48.824;11.422;2023-01-30T12:28:36;1.90;99.90
17053;DHT22;8643;48.824;11.422;2023-01-30T12:33:47;1.70;99.90
17053;DHT22;8643;48.824;11.422;2023-01-30T12:36:24;1.80;99.90
17053;DHT22;8643;48.824;11.422;2023-01-30T12:39:12;1.80;99.90
17053;DHT22;8643;48.824;11.422;2023-01-30T12:42:14;1.90;99.90
17053;DHT22;8643;48.824;11.422;2023-01-30T12:45:12;1.80;99.90
17053;DHT22;8643;48.824;11.422;2023-01-30T12:48:03;1.70;99.90
17053;DHT22;8643;48.824;11.422;2023-01-30T12:50:51;1.60;99.90
17053;DHT22;8643;48.824;11.422;2023-01-30T12:53:35;1.60;99.90
17053;DHT22;8643;48.824;11.422;2023-01-30T12:56:29;1.50;99.90
17053;DHT22;8643;48.824;11.422;2023-01-30T12:59:13;1.40;99.90
17053;DHT22;8643;48.824;11.422;2023-01-30T13:02:01;1.30;99.90
17053;DHT22;8643;48.824;11.422;2023-01-30T13:05:00;1.20;99.90
17053;DHT22;8643;48.824;11.422;2023-01-30T13:08:07;1.20;99.90
17053;DHT22;8643;48.824;11.422;2023-01-30T13:10:53;1.10;99.90
17053;DHT22;8643;48.824;11.422;2023-01-30T13:13:35;1.10;99.90
17053;DHT22;8643;48.824;11.422;2023-01-30T13:16:20;1.10;99.90
17053;DHT22;8643;48.824;11.422;2023-01-30T13:18:56;1.10;99.90
17053;DHT22;8643;48.824;11.422;2023-01-30T13:21:35;1.20;99.90
17053;DHT22;8643;48.824;11.422;2023-01-30T13:24:19;1.10;99.90
17053;DHT22;8643;48.824;11.422;2023-01-30T13:26:53;1.10;99.90
17053;DHT22;8643;48.824;11.422;2023-01-30T13:29:29;1.10;99.90
17053;DHT22;8643;48.824;11.422;2023-01-30T13:32:04;1.10;99.90
17053;DHT22;8643;48.824;11.422;2023-01-30T13:34:40;1.10;99.90
17053;DHT22;8643;48.824;11.422;2023-01-30T13:37:13;1.10;99.90
17053;DHT22;8643;48.824;11.422;2023-01-30T13:39:46;1.10;99.90
17053;DHT22;8643;48.824;11.422;2023-01-30T13:42:26;1.00;99.90
17053;DHT22;8643;48.824;11.422;2023-01-30T13:45:00;0.90;99.90
17053;DHT22;8643;48.824;11.422;2023-01-30T13:47:41;1.00;99.90
17053;DHT22;8643;48.824;11.422;2023-01-30T13:50:33;0.90;99.90
17053;DHT22;8643;48.824;11.422;2023-01-30T13:53:18;0.90;99.90
17053;DHT22;8643;48.824;11.422;2023-01-30T13:55:57;1.00;99.90
17053;DHT22;8643;48.824;11.422;2023-01-30T13:58:59;1.00;99.90
17053;DHT22;8643;48.824;11.422;2023-01-30T14:02:07;1.00;99.90
17053;DHT22;8643;48.824;11.422;2023-01-30T14:04:46;1.00;99.90
17053;DHT22;8643;48.824;11.422;2023-01-30T14:07:22;1.00;99.90
17053;DHT22;8643;48.824;11.422;2023-01-30T14:10:13;1.00;99.90
17053;DHT22;8643;48.824;11.422;2023-01-30T14:12:49;1.00;99.90
17053;DHT22;8643;48.824;11.422;2023-01-30T14:15:25;1.00;99.90
17053;DHT22;8643;48.824;11.422;2023-01-30T14:18:00;1.10;99.90
17053;DHT22;8643;48.824;11.422;2023-01-30T14:20:33;1.70;99.90
17053;DHT22;8643;48.824;11.422;2023-01-30T14:23:04;1.10;99.90
17053;DHT22;8643;48.824;11.422;2023-01-30T14:25:48;1.10;99.90
17053;DHT22;8643;48.824;11.422;2023-01-30T14:28:49;1.10;99.90
17053;DHT22;8643;48.824;11.422;2023-01-30T14:31:51;1.10;99.90
17053;DHT22;8643;48.824;11.422;2023-01-30T14:34:42;1.10;99.90
17053;DHT22;8643;48.824;11.422;2023-01-30T14:40:44;1.20;99.90
17053;DHT22;8643;48.824;11.422;2023-01-30T14:46:56;1.30;99.90
17053;DHT22;8643;48.824;11.422;2023-01-30T14:49:29;1.30;99.90
17053;DHT22;8643;48.824;11.422;2023-01-30T14:52:01;1.30;99.90
17053;DHT22;8643;48.824;11.422;2023-01-30T14:54:33;2.10;99.90
17053;DHT22;8643;48.824;11.422;2023-01-30T14:57:19;1.30;99.90
17053;DHT22;8643;48.824;11.422;2023-01-30T14:59:56;1.40;99.90
17053;DHT22;8643;48.824;11.422;2023-01-30T15:05:26;1.50;99.90
17053;DHT22;8643;48.824;11.422;2023-01-30T15:08:03;1.30;99.90
17053;DHT22;8643;48.824;11.422;2023-01-30T15:11:02;1.30;99.90
17053;DHT22;8643;48.824;11.422;2023-01-30T15:13:58;1.30;99.90
17053;DHT22;8643;48.824;11.422;2023-01-30T15:16:57;1.40;99.90
17053;DHT22;8643;48.824;11.422;2023-01-30T15:19:51;-0.30;99.90
17053;DHT22;8643;48.824;11.422;2023-01-30T15:22:42;1.40;99.90
17053;DHT22;8643;48.824;11.422;2023-01-30T15:25:31;1.50;99.90
17053;DHT22;8643;48.824;11.422;2023-01-30T15:28:33;1.50;99.90
17053;DHT22;8643;48.824;11.422;2023-01-30T15:31:12;1.50;99.90
17053;DHT22;8643;48.824;11.422;2023-01-30T15:33:47;1.50;99.90
17053;DHT22;8643;48.824;11.422;2023-01-30T15:36:21;1.60;99.90
17053;DHT22;8643;48.824;11.422;2023-01-30T15:39:00;1.60;99.90
17053;DHT22;8643;48.824;11.422;2023-01-30T15:41:31;1.60;99.90
17053;DHT22;8643;48.824;11.422;2023-01-30T15:44:29;1.60;99.90
17053;DHT22;8643;48.824;11.422;2023-01-30T15:47:19;1.70;99.90
17053;DHT22;8643;48.824;11.422;2023-01-30T15:49:56;2.40;99.90
17053;DHT22;8643;48.824;11.422;2023-01-30T15:52:35;1.70;99.90
17053;DHT22;8643;48.824;11.422;2023-01-30T15:55:16;1.70;99.90
17053;DHT22;8643;48.824;11.422;2023-01-30T15:57:50;1.70;99.90
17053;DHT22;8643;48.824;11.422;2023-01-30T16:00:28;1.80;99.90
17053;DHT22;8643;48.824;11.422;2023-01-30T16:03:00;1.80;99.90
17053;DHT22;8643;48.824;11.422;2023-01-30T16:05:31;1.80;99.90
17053;DHT22;8643;48.824;11.422;2023-01-30T16:08:09;1.90;99.90
17053;DHT22;8643;48.824;11.422;2023-01-30T16:10:48;1.80;99.90
17053;DHT22;8643;48.824;11.422;2023-01-30T16:13:17;2.40;99.90
17053;DHT22;8643;48.824;11.422;2023-01-30T16:18:29;2.00;99.90
17053;DHT22;8643;48.824;11.422;2023-01-30T16:21:03;2.00;99.90
17053;DHT22;8643;48.824;11.422;2023-01-30T16:23:36;2.10;99.90
17053;DHT22;8643;48.824;11.422;2023-01-30T16:26:12;2.10;99.90
17053;DHT22;8643;48.824;11.422;2023-01-30T16:28:44;2.20;99.90
17053;DHT22;8643;48.824;11.422;2023-01-30T16:31:12;2.10;99.90
17053;DHT22;8643;48.824;11.422;2023-01-30T16:33:48;3.00;99.90
17053;DHT22;8643;48.824;11.422;2023-01-30T16:36:47;2.30;99.90
17053;DHT22;8643;48.824;11.422;2023-01-30T16:39:27;2.40;99.90
17053;DHT22;8643;48.824;11.422;2023-01-30T16:41:58;2.40;99.90
17053;DHT22;8643;48.824;11.422;2023-01-30T16:44:28;2.30;99.90
17053;DHT22;8643;48.824;11.422;2023-01-30T16:47:02;2.40;99.90
17053;DHT22;8643;48.824;11.422;2023-01-30T16:49:41;2.40;99.90
17053;DHT22;8643;48.824;11.422;2023-01-30T16:52:18;2.40;99.90
17053;DHT22;8643;48.824;11.422;2023-01-30T16:54:51;2.40;99.90
17053;DHT22;8643;48.824;11.422;2023-01-30T16:57:28;2.40;99.90
17053;DHT22;8643;48.824;11.422;2023-01-30T17:00:07;2.40;99.90
17053;DHT22;8643;48.824;11.422;2023-01-30T17:02:50;2.60;99.90
17053;DHT22;8643;48.824;11.422;2023-01-30T17:05:23;2.40;99.90
17053;DHT22;8643;48.824;11.422;2023-01-30T17:07:56;4.00;99.90
17053;DHT22;8643;48.824;11.422;2023-01-30T17:10:52;2.40;99.90
17053;DHT22;8643;48.824;11.422;2023-01-30T17:13:35;2.50;99.90
17053;DHT22;8643;48.824;11.422;2023-01-30T17:16:29;2.40;99.90
17053;DHT22;8643;48.824;11.422;2023-01-30T17:21:41;2.30;99.90
17053;DHT22;8643;48.824;11.422;2023-01-30T17:24:15;2.30;99.90
17053;DHT22;8643;48.824;11.422;2023-01-30T17:26:48;2.40;99.90
17053;DHT22;8643;48.824;11.422;2023-01-30T17:29:25;2.30;99.90
17053;DHT22;8643;48.824;11.422;2023-01-30T17:32:09;2.20;99.90
17053;DHT22;8643;48.824;11.422;2023-01-30T17:37:13;2.00;99.90
17053;DHT22;8643;48.824;11.422;2023-01-30T17:39:49;2.10;99.90
17053;DHT22;8643;48.824;11.422;2023-01-30T17:44:48;2.20;99.90
17053;DHT22;8643;48.824;11.422;2023-01-30T17:47:16;2.30;99.90
17053;DHT22;8643;48.824;11.422;2023-01-30T17:52:14;2.20;99.90
17053;DHT22;8643;48.824;11.422;2023-01-30T17:57:15;2.30;99.90
17053;DHT22;8643;48.824;11.422;2023-01-30T17:59:44;2.30;99.90
17053;DHT22;8643;48.824;11.422;2023-01-30T18:04:41;2.40;99.90
17053;DHT22;8643;48.824;11.422;2023-01-30T18:07:12;2.40;99.90
17053;DHT22;8643;48.824;11.422;2023-01-30T18:12:10;2.40;99.90
17053;DHT22;8643;48.824;11.422;2023-01-30T18:14:40;2.40;99.90
17053;DHT22;8643;48.824;11.422;2023-01-30T18:22:06;2.30;99.90
17053;DHT22;8643;48.824;11.422;2023-01-30T18:24:35;2.40;99.90
17053;DHT22;8643;48.824;11.422;2023-01-30T18:29:32;2.40;99.90
17053;DHT22;8643;48.824;11.422;2023-01-30T18:32:01;3.20;99.90
17053;DHT22;8643;48.824;11.422;2023-01-30T18:34:31;2.40;99.90
17053;DHT22;8643;48.824;11.422;2023-01-30T18:37:01;2.40;99.90
17053;DHT22;8643;48.824;11.422;2023-01-30T18:41:58;2.40;99.90
17053;DHT22;8643;48.824;11.422;2023-01-30T18:44:28;2.50;99.90
17053;DHT22;8643;48.824;11.422;2023-01-30T18:46:56;2.50;99.90
17053;DHT22;8643;48.824;11.422;2023-01-30T18:49:26;2.50;99.90
17053;DHT22;8643;48.824;11.422;2023-01-30T18:51:54;2.50;99.90